sensor_id;sensor_type;location;lat;lon;timestamp;temperature;humidity
52107;DHT22;38105;52.968;5.974;2023-06-14T00:02:12;16.30;97.40
52107;DHT22;38105;52.968;5.974;2023-06-14T00:04:40;16.20;97.50
52107;DHT22;38105;52.968;5.974;2023-06-14T00:07:07;16.20;97.60
52107;DHT22;38105;52.968;5.974;2023-06-14T00:09:35;16.10;97.70
52107;DHT22;38105;52.968;5.974;2023-06-14T00:12:01;16.10;97.90
52107;DHT22;38105;52.968;5.974;2023-06-14T00:14:27;16.00;98.00
52107;DHT22;38105;52.968;5.974;2023-06-14T00:16:53;16.10;98.20
52107;DHT22;38105;52.968;5.974;2023-06-14T00:19:19;16.10;98.40
52107;DHT22;38105;52.968;5.974;2023-06-14T00:21:46;16.10;98.40
52107;DHT22;38105;52.968;5.974;2023-06-14T00:24:12;16.00;98.50
52107;DHT22;38105;52.968;5.974;2023-06-14T00:26:38;15.90;98.60
52107;DHT22;38105;52.968;5.974;2023-06-14T00:29:03;15.90;98.80
52107;DHT22;38105;52.968;5.974;2023-06-14T00:31:29;15.90;98.90
52107;DHT22;38105;52.968;5.974;2023-06-14T00:33:55;15.90;99.00
52107;DHT22;38105;52.968;5.974;2023-06-14T00:36:21;15.90;99.30
52107;DHT22;38105;52.968;5.974;2023-06-14T00:38:46;15.80;99.50
52107;DHT22;38105;52.968;5.974;2023-06-14T00:41:12;15.80;99.70
52107;DHT22;38105;52.968;5.974;2023-06-14T00:43:38;15.80;99.90
52107;DHT22;38105;52.968;5.974;2023-06-14T00:46:03;15.80;99.90
52107;DHT22;38105;52.968;5.974;2023-06-14T00:48:29;15.80;99.90
52107;DHT22;38105;52.968;5.974;2023-06-14T00:50:56;15.80;99.90
52107;DHT22;38105;52.968;5.974;2023-06-14T00:53:23;15.80;99.90
52107;DHT22;38105;52.968;5.974;2023-06-14T00:55:50;15.80;99.90
52107;DHT22;38105;52.968;5.974;2023-06-14T00:58:16;15.70;99.90
52107;DHT22;38105;52.968;5.974;2023-06-14T01:00:42;15.70;99.90
52107;DHT22;38105;52.968;5.974;2023-06-14T01:03:08;15.60;99.90
52107;DHT22;38105;52.968;5.974;2023-06-14T01:05:38;15.60;99.90
52107;DHT22;38105;52.968;5.974;2023-06-14T01:11:01;15.50;99.90
52107;DHT22;38105;52.968;5.974;2023-06-14T01:13:43;15.50;99.90
52107;DHT22;38105;52.968;5.974;2023-06-14T01:16:12;15.40;99.90
52107;DHT22;38105;52.968;5.974;2023-06-14T01:18:39;15.40;99.90
52107;DHT22;38105;52.968;5.974;2023-06-14T01:21:22;15.30;99.90
52107;DHT22;38105;52.968;5.974;2023-06-14T01:23:51;15.30;99.90
52107;DHT22;38105;52.968;5.974;2023-06-14T01:26:24;15.20;99.90
52107;DHT22;38105;52.968;5.974;2023-06-14T01:28:54;15.20;99.90
52107;DHT22;38105;52.968;5.974;2023-06-14T01:31:24;15.10;99.90
52107;DHT22;38105;52.968;5.974;2023-06-14T01:33:51;15.10;99.90
52107;DHT22;38105;52.968;5.974;2023-06-14T01:36:21;15.10;99.90
52107;DHT22;38105;52.968;5.974;2023-06-14T01:38:48;15.10;99.90
52107;DHT22;38105;52.968;5.974;2023-06-14T01:41:18;15.00;99.90
52107;DHT22;38105;52.968;5.974;2023-06-14T01:43:45;15.00;99.90
52107;DHT22;38105;52.968;5.974;2023-06-14T01:46:15;14.90;99.90
52107;DHT22;38105;52.968;5.974;2023-06-14T01:48:43;14.90;99.90
52107;DHT22;38105;52.968;5.974;2023-06-14T01:51:12;14.90;99.90
52107;DHT22;38105;52.968;5.974;2023-06-14T01:53:37;14.90;99.90
52107;DHT22;38105;52.968;5.974;2023-06-14T01:56:03;14.90;99.90
52107;DHT22;38105;52.968;5.974;2023-06-14T01:58:29;14.90;99.90
52107;DHT22;38105;52.968;5.974;2023-06-14T02:00:55;14.80;99.90
52107;DHT22;38105;52.968;5.974;2023-06-14T02:03:21;14.70;99.90
52107;DHT22;38105;52.968;5.974;2023-06-14T02:05:46;14.70;99.90
52107;DHT22;38105;52.968;5.974;2023-06-14T02:08:12;14.70;99.90
52107;DHT22;38105;52.968;5.974;2023-06-14T02:10:38;14.60;99.90
52107;DHT22;38105;52.968;5.974;2023-06-14T02:13:04;14.60;99.90
52107;DHT22;38105;52.968;5.974;2023-06-14T02:15:29;14.60;99.90
52107;DHT22;38105;52.968;5.974;2023-06-14T02:18:00;14.60;99.90
52107;DHT22;38105;52.968;5.974;2023-06-14T02:20:26;14.50;99.90
52107;DHT22;38105;52.968;5.974;2023-06-14T02:22:52;14.50;99.90
52107;DHT22;38105;52.968;5.974;2023-06-14T02:25:17;14.50;99.90
52107;DHT22;38105;52.968;5.974;2023-06-14T02:27:43;14.40;99.90
52107;DHT22;38105;52.968;5.974;2023-06-14T02:30:09;14.40;99.90
52107;DHT22;38105;52.968;5.974;2023-06-14T02:32:35;14.40;99.90
52107;DHT22;38105;52.968;5.974;2023-06-14T02:35:01;14.40;99.90
52107;DHT22;38105;52.968;5.974;2023-06-14T02:37:27;14.40;99.90
52107;DHT22;38105;52.968;5.974;2023-06-14T02:39:52;14.30;99.90
52107;DHT22;38105;52.968;5.974;2023-06-14T02:42:18;14.30;99.90
52107;DHT22;38105;52.968;5.974;2023-06-14T02:44:44;14.20;99.90
52107;DHT22;38105;52.968;5.974;2023-06-14T02:47:12;14.20;99.90
52107;DHT22;38105;52.968;5.974;2023-06-14T02:49:37;14.20;99.90
52107;DHT22;38105;52.968;5.974;2023-06-14T02:52:03;14.20;99.90
52107;DHT22;38105;52.968;5.974;2023-06-14T02:54:29;14.10;99.90
52107;DHT22;38105;52.968;5.974;2023-06-14T02:56:55;14.10;99.90
52107;DHT22;38105;52.968;5.974;2023-06-14T02:59:20;14.10;99.90
52107;DHT22;38105;52.968;5.974;2023-06-14T03:01:47;14.10;99.90
52107;DHT22;38105;52.968;5.974;2023-06-14T03:04:12;14.10;99.90
52107;DHT22;38105;52.968;5.974;2023-06-14T03:06:38;14.00;99.90
52107;DHT22;38105;52.968;5.974;2023-06-14T03:09:06;14.00;99.90
52107;DHT22;38105;52.968;5.974;2023-06-14T03:11:32;14.00;99.90
52107;DHT22;38105;52.968;5.974;2023-06-14T03:13:58;13.90;99.90
52107;DHT22;38105;52.968;5.974;2023-06-14T03:16:24;14.00;99.90
52107;DHT22;38105;52.968;5.974;2023-06-14T03:18:52;14.00;99.90
52107;DHT22;38105;52.968;5.974;2023-06-14T03:21:19;13.90;99.90
52107;DHT22;38105;52.968;5.974;2023-06-14T03:23:48;13.90;99.90
52107;DHT22;38105;52.968;5.974;2023-06-14T03:26:14;14.00;99.90
52107;DHT22;38105;52.968;5.974;2023-06-14T03:28:46;13.90;99.90
52107;DHT22;38105;52.968;5.974;2023-06-14T03:31:12;13.90;99.90
52107;DHT22;38105;52.968;5.974;2023-06-14T03:33:39;14.00;99.90
52107;DHT22;38105;52.968;5.974;2023-06-14T03:36:05;13.90;99.90
52107;DHT22;38105;52.968;5.974;2023-06-14T03:38:32;13.90;99.90
52107;DHT22;38105;52.968;5.974;2023-06-14T03:41:00;14.00;99.90
52107;DHT22;38105;52.968;5.974;2023-06-14T03:43:26;13.90;99.90
52107;DHT22;38105;52.968;5.974;2023-06-14T03:45:52;14.00;99.90
52107;DHT22;38105;52.968;5.974;2023-06-14T03:48:20;13.90;99.90
52107;DHT22;38105;52.968;5.974;2023-06-14T03:50:48;13.90;99.90
52107;DHT22;38105;52.968;5.974;2023-06-14T03:53:14;13.90;99.90
52107;DHT22;38105;52.968;5.974;2023-06-14T03:55:40;13.90;99.90
52107;DHT22;38105;52.968;5.974;2023-06-14T03:58:06;13.90;99.90
52107;DHT22;38105;52.968;5.974;2023-06-14T04:00:32;13.90;99.90
52107;DHT22;38105;52.968;5.974;2023-06-14T04:02:58;14.00;99.90
52107;DHT22;38105;52.968;5.974;2023-06-14T04:05:24;13.90;99.90
52107;DHT22;38105;52.968;5.974;2023-06-14T04:07:52;14.00;99.90
52107;DHT22;38105;52.968;5.974;2023-06-14T04:10:17;14.00;99.90
52107;DHT22;38105;52.968;5.974;2023-06-14T04:12:43;14.00;99.90
52107;DHT22;38105;52.968;5.974;2023-06-14T04:15:09;14.00;99.90
52107;DHT22;38105;52.968;5.974;2023-06-14T04:17:36;14.20;99.90
52107;DHT22;38105;52.968;5.974;2023-06-14T04:20:03;14.80;99.90
52107;DHT22;38105;52.968;5.974;2023-06-14T04:22:30;15.70;99.90
52107;DHT22;38105;52.968;5.974;2023-06-14T04:24:57;16.50;99.90
52107;DHT22;38105;52.968;5.974;2023-06-14T04:27:23;17.30;99.90
52107;DHT22;38105;52.968;5.974;2023-06-14T04:29:55;18.00;99.90
52107;DHT22;38105;52.968;5.974;2023-06-14T04:32:25;18.70;99.90
52107;DHT22;38105;52.968;5.974;2023-06-14T04:34:55;19.10;99.90
52107;DHT22;38105;52.968;5.974;2023-06-14T04:37:21;19.60;99.90
52107;DHT22;38105;52.968;5.974;2023-06-14T04:39:50;19.90;99.90
52107;DHT22;38105;52.968;5.974;2023-06-14T04:42:17;20.40;99.90
52107;DHT22;38105;52.968;5.974;2023-06-14T04:44:45;20.80;99.90
52107;DHT22;38105;52.968;5.974;2023-06-14T04:47:13;21.10;99.90
52107;DHT22;38105;52.968;5.974;2023-06-14T04:49:41;21.30;99.90
52107;DHT22;38105;52.968;5.974;2023-06-14T04:52:07;21.80;99.90
52107;DHT22;38105;52.968;5.974;2023-06-14T04:54:38;22.00;99.50
52107;DHT22;38105;52.968;5.974;2023-06-14T04:57:07;22.10;98.80
52107;DHT22;38105;52.968;5.974;2023-06-14T04:59:34;22.40;98.10
52107;DHT22;38105;52.968;5.974;2023-06-14T05:02:02;22.60;97.80
52107;DHT22;38105;52.968;5.974;2023-06-14T05:04:28;22.90;97.50
52107;DHT22;38105;52.968;5.974;2023-06-14T05:06:54;23.20;97.10
52107;DHT22;38105;52.968;5.974;2023-06-14T05:09:20;23.00;96.80
52107;DHT22;38105;52.968;5.974;2023-06-14T05:11:46;23.10;96.70
52107;DHT22;38105;52.968;5.974;2023-06-14T05:14:13;23.70;96.30
52107;DHT22;38105;52.968;5.974;2023-06-14T05:16:40;23.70;95.90
52107;DHT22;38105;52.968;5.974;2023-06-14T05:19:06;23.90;95.60
52107;DHT22;38105;52.968;5.974;2023-06-14T05:21:32;24.00;95.30
52107;DHT22;38105;52.968;5.974;2023-06-14T05:24:00;24.00;95.10
52107;DHT22;38105;52.968;5.974;2023-06-14T05:26:26;24.00;94.80
52107;DHT22;38105;52.968;5.974;2023-06-14T05:28:58;23.80;94.80
52107;DHT22;38105;52.968;5.974;2023-06-14T05:31:26;23.80;95.00
52107;DHT22;38105;52.968;5.974;2023-06-14T05:33:52;24.30;94.80
52107;DHT22;38105;52.968;5.974;2023-06-14T05:36:19;24.40;94.40
52107;DHT22;38105;52.968;5.974;2023-06-14T05:38:45;24.70;94.10
52107;DHT22;38105;52.968;5.974;2023-06-14T05:41:13;24.80;94.00
52107;DHT22;38105;52.968;5.974;2023-06-14T05:43:39;24.80;93.70
52107;DHT22;38105;52.968;5.974;2023-06-14T05:46:05;24.50;93.90
52107;DHT22;38105;52.968;5.974;2023-06-14T05:48:31;25.20;93.80
52107;DHT22;38105;52.968;5.974;2023-06-14T05:50:56;25.30;93.50
52107;DHT22;38105;52.968;5.974;2023-06-14T05:53:22;25.50;93.10
52107;DHT22;38105;52.968;5.974;2023-06-14T05:55:50;25.40;92.60
52107;DHT22;38105;52.968;5.974;2023-06-14T05:58:17;25.70;92.70
52107;DHT22;38105;52.968;5.974;2023-06-14T06:00:42;26.00;92.30
52107;DHT22;38105;52.968;5.974;2023-06-14T06:03:10;26.50;91.80
52107;DHT22;38105;52.968;5.974;2023-06-14T06:05:36;26.30;91.60
52107;DHT22;38105;52.968;5.974;2023-06-14T06:08:02;26.80;91.60
52107;DHT22;38105;52.968;5.974;2023-06-14T06:10:27;27.20;91.10
52107;DHT22;38105;52.968;5.974;2023-06-14T06:12:53;27.30;90.90
52107;DHT22;38105;52.968;5.974;2023-06-14T06:15:20;27.40;90.60
52107;DHT22;38105;52.968;5.974;2023-06-14T06:17:46;27.80;90.20
52107;DHT22;38105;52.968;5.974;2023-06-14T06:20:12;27.90;90.10
52107;DHT22;38105;52.968;5.974;2023-06-14T06:22:38;28.10;90.10
52107;DHT22;38105;52.968;5.974;2023-06-14T06:25:05;28.20;89.80
52107;DHT22;38105;52.968;5.974;2023-06-14T06:27:32;28.10;89.70
52107;DHT22;38105;52.968;5.974;2023-06-14T06:30:00;28.50;89.20
52107;DHT22;38105;52.968;5.974;2023-06-14T06:32:28;28.90;88.00
52107;DHT22;38105;52.968;5.974;2023-06-14T06:34:54;28.80;87.70
52107;DHT22;38105;52.968;5.974;2023-06-14T06:37:20;28.50;87.30
52107;DHT22;38105;52.968;5.974;2023-06-14T06:39:45;28.50;87.40
52107;DHT22;38105;52.968;5.974;2023-06-14T06:42:14;28.70;87.30
52107;DHT22;38105;52.968;5.974;2023-06-14T06:44:40;29.20;86.90
52107;DHT22;38105;52.968;5.974;2023-06-14T06:47:08;29.80;87.10
52107;DHT22;38105;52.968;5.974;2023-06-14T06:49:37;30.50;86.50
52107;DHT22;38105;52.968;5.974;2023-06-14T06:52:07;30.90;85.40
52107;DHT22;38105;52.968;5.974;2023-06-14T06:54:33;30.90;83.60
52107;DHT22;38105;52.968;5.974;2023-06-14T06:57:00;30.80;83.70
52107;DHT22;38105;52.968;5.974;2023-06-14T06:59:27;31.00;84.30
52107;DHT22;38105;52.968;5.974;2023-06-14T07:01:53;30.80;83.50
52107;DHT22;38105;52.968;5.974;2023-06-14T07:04:18;31.20;82.70
52107;DHT22;38105;52.968;5.974;2023-06-14T07:06:45;30.90;82.70
52107;DHT22;38105;52.968;5.974;2023-06-14T07:09:12;31.20;82.50
52107;DHT22;38105;52.968;5.974;2023-06-14T07:11:43;30.50;82.00
52107;DHT22;38105;52.968;5.974;2023-06-14T07:14:09;30.50;82.70
52107;DHT22;38105;52.968;5.974;2023-06-14T07:16:35;30.90;83.20
52107;DHT22;38105;52.968;5.974;2023-06-14T07:19:02;31.00;82.30
52107;DHT22;38105;52.968;5.974;2023-06-14T07:21:27;31.50;82.80
52107;DHT22;38105;52.968;5.974;2023-06-14T07:23:56;32.10;82.10
52107;DHT22;38105;52.968;5.974;2023-06-14T07:26:22;32.20;81.10
52107;DHT22;38105;52.968;5.974;2023-06-14T07:28:48;31.90;80.10
52107;DHT22;38105;52.968;5.974;2023-06-14T07:31:16;31.50;80.90
52107;DHT22;38105;52.968;5.974;2023-06-14T07:33:44;31.20;79.80
52107;DHT22;38105;52.968;5.974;2023-06-14T07:36:13;31.00;80.20
52107;DHT22;38105;52.968;5.974;2023-06-14T07:38:38;30.90;80.70
52107;DHT22;38105;52.968;5.974;2023-06-14T07:41:08;31.00;80.70
52107;DHT22;38105;52.968;5.974;2023-06-14T07:43:34;31.50;81.20
52107;DHT22;38105;52.968;5.974;2023-06-14T07:46:02;31.60;80.00
52107;DHT22;38105;52.968;5.974;2023-06-14T07:48:28;31.70;79.40
52107;DHT22;38105;52.968;5.974;2023-06-14T07:50:54;32.00;79.60
52107;DHT22;38105;52.968;5.974;2023-06-14T07:53:20;31.70;78.90
52107;DHT22;38105;52.968;5.974;2023-06-14T07:55:45;32.10;78.30
52107;DHT22;38105;52.968;5.974;2023-06-14T07:58:12;31.80;78.40
52107;DHT22;38105;52.968;5.974;2023-06-14T08:00:41;31.60;78.50
52107;DHT22;38105;52.968;5.974;2023-06-14T08:03:06;31.60;78.40
52107;DHT22;38105;52.968;5.974;2023-06-14T08:05:33;31.30;78.00
52107;DHT22;38105;52.968;5.974;2023-06-14T08:07:58;31.30;78.10
52107;DHT22;38105;52.968;5.974;2023-06-14T08:10:24;31.20;78.90
52107;DHT22;38105;52.968;5.974;2023-06-14T08:12:50;31.20;78.50
52107;DHT22;38105;52.968;5.974;2023-06-14T08:15:19;31.20;78.10
52107;DHT22;38105;52.968;5.974;2023-06-14T08:17:48;31.00;78.50
52107;DHT22;38105;52.968;5.974;2023-06-14T08:20:13;31.00;78.00
52107;DHT22;38105;52.968;5.974;2023-06-14T08:22:42;30.80;78.70
52107;DHT22;38105;52.968;5.974;2023-06-14T08:25:08;30.50;78.50
52107;DHT22;38105;52.968;5.974;2023-06-14T08:27:35;30.60;78.40
52107;DHT22;38105;52.968;5.974;2023-06-14T08:30:01;31.00;78.70
52107;DHT22;38105;52.968;5.974;2023-06-14T08:32:27;31.40;78.20
52107;DHT22;38105;52.968;5.974;2023-06-14T08:34:53;31.20;78.10
52107;DHT22;38105;52.968;5.974;2023-06-14T08:37:19;30.80;78.20
52107;DHT22;38105;52.968;5.974;2023-06-14T08:39:45;31.10;78.20
52107;DHT22;38105;52.968;5.974;2023-06-14T08:42:12;31.50;78.40
52107;DHT22;38105;52.968;5.974;2023-06-14T08:44:39;31.90;79.40
52107;DHT22;38105;52.968;5.974;2023-06-14T08:47:09;32.30;78.30
52107;DHT22;38105;52.968;5.974;2023-06-14T08:49:37;32.30;77.30
52107;DHT22;38105;52.968;5.974;2023-06-14T08:52:08;32.20;77.20
52107;DHT22;38105;52.968;5.974;2023-06-14T08:54:36;31.70;77.00
52107;DHT22;38105;52.968;5.974;2023-06-14T08:57:11;31.60;76.70
52107;DHT22;38105;52.968;5.974;2023-06-14T08:59:46;31.10;76.80
52107;DHT22;38105;52.968;5.974;2023-06-14T09:02:15;31.10;77.60
52107;DHT22;38105;52.968;5.974;2023-06-14T09:04:43;30.80;77.10
52107;DHT22;38105;52.968;5.974;2023-06-14T09:07:10;30.60;76.20
52107;DHT22;38105;52.968;5.974;2023-06-14T09:09:42;30.00;77.40
52107;DHT22;38105;52.968;5.974;2023-06-14T09:12:09;29.80;77.10
52107;DHT22;38105;52.968;5.974;2023-06-14T09:14:36;30.00;77.60
52107;DHT22;38105;52.968;5.974;2023-06-14T09:17:05;30.00;77.90
52107;DHT22;38105;52.968;5.974;2023-06-14T09:19:31;30.40;78.80
52107;DHT22;38105;52.968;5.974;2023-06-14T09:21:56;30.80;77.70
52107;DHT22;38105;52.968;5.974;2023-06-14T09:24:24;31.00;76.90
52107;DHT22;38105;52.968;5.974;2023-06-14T09:26:51;30.50;76.70
52107;DHT22;38105;52.968;5.974;2023-06-14T09:29:17;30.40;78.60
52107;DHT22;38105;52.968;5.974;2023-06-14T09:31:47;30.30;76.90
52107;DHT22;38105;52.968;5.974;2023-06-14T09:34:13;30.30;77.10
52107;DHT22;38105;52.968;5.974;2023-06-14T09:36:39;30.20;77.50
52107;DHT22;38105;52.968;5.974;2023-06-14T09:39:08;30.00;77.30
52107;DHT22;38105;52.968;5.974;2023-06-14T09:41:40;30.20;77.80
52107;DHT22;38105;52.968;5.974;2023-06-14T09:44:08;30.00;77.50
52107;DHT22;38105;52.968;5.974;2023-06-14T09:46:35;29.90;77.70
52107;DHT22;38105;52.968;5.974;2023-06-14T09:49:03;30.10;78.60
52107;DHT22;38105;52.968;5.974;2023-06-14T09:51:29;30.30;78.50
52107;DHT22;38105;52.968;5.974;2023-06-14T09:54:02;30.50;78.10
52107;DHT22;38105;52.968;5.974;2023-06-14T09:56:32;30.50;78.10
52107;DHT22;38105;52.968;5.974;2023-06-14T09:59:04;30.30;76.90
52107;DHT22;38105;52.968;5.974;2023-06-14T10:01:31;30.50;77.50
52107;DHT22;38105;52.968;5.974;2023-06-14T10:04:04;30.50;76.00
52107;DHT22;38105;52.968;5.974;2023-06-14T10:06:31;30.00;76.20
52107;DHT22;38105;52.968;5.974;2023-06-14T10:08:58;29.60;76.80
52107;DHT22;38105;52.968;5.974;2023-06-14T10:11:27;29.30;77.00
52107;DHT22;38105;52.968;5.974;2023-06-14T10:13:57;29.30;77.70
52107;DHT22;38105;52.968;5.974;2023-06-14T10:24:30;29.50;77.50
52107;DHT22;38105;52.968;5.974;2023-06-14T10:26:58;29.60;77.80
52107;DHT22;38105;52.968;5.974;2023-06-14T10:29:25;29.40;78.30
52107;DHT22;38105;52.968;5.974;2023-06-14T10:31:56;29.40;78.10
52107;DHT22;38105;52.968;5.974;2023-06-14T10:34:27;28.90;77.00
52107;DHT22;38105;52.968;5.974;2023-06-14T10:37:06;28.60;77.70
52107;DHT22;38105;52.968;5.974;2023-06-14T10:39:41;28.50;78.10
52107;DHT22;38105;52.968;5.974;2023-06-14T10:42:07;28.70;80.30
52107;DHT22;38105;52.968;5.974;2023-06-14T10:44:45;28.50;78.40
52107;DHT22;38105;52.968;5.974;2023-06-14T10:49:56;28.10;79.20
52107;DHT22;38105;52.968;5.974;2023-06-14T10:52:25;27.90;78.70
52107;DHT22;38105;52.968;5.974;2023-06-14T10:55:15;28.10;80.20
52107;DHT22;38105;52.968;5.974;2023-06-14T10:57:53;28.00;78.60
52107;DHT22;38105;52.968;5.974;2023-06-14T11:00:25;27.80;79.90
52107;DHT22;38105;52.968;5.974;2023-06-14T11:05:57;27.60;79.10
52107;DHT22;38105;52.968;5.974;2023-06-14T11:08:51;27.40;79.30
52107;DHT22;38105;52.968;5.974;2023-06-14T11:11:22;27.60;80.60
52107;DHT22;38105;52.968;5.974;2023-06-14T11:13:51;27.50;79.40
52107;DHT22;38105;52.968;5.974;2023-06-14T11:16:17;27.20;78.80
52107;DHT22;38105;52.968;5.974;2023-06-14T11:18:46;27.10;79.80
52107;DHT22;38105;52.968;5.974;2023-06-14T11:21:15;27.30;80.30
52107;DHT22;38105;52.968;5.974;2023-06-14T11:23:41;27.40;80.30
52107;DHT22;38105;52.968;5.974;2023-06-14T11:26:07;27.50;80.40
52107;DHT22;38105;52.968;5.974;2023-06-14T11:31:03;27.30;79.90
52107;DHT22;38105;52.968;5.974;2023-06-14T11:33:29;27.40;81.10
52107;DHT22;38105;52.968;5.974;2023-06-14T11:35:55;27.50;80.40
52107;DHT22;38105;52.968;5.974;2023-06-14T11:38:21;27.60;80.70
52107;DHT22;38105;52.968;5.974;2023-06-14T11:40:46;27.90;81.20
52107;DHT22;38105;52.968;5.974;2023-06-14T11:43:12;27.90;80.60
52107;DHT22;38105;52.968;5.974;2023-06-14T11:45:39;27.70;80.50
52107;DHT22;38105;52.968;5.974;2023-06-14T11:48:06;27.70;80.60
52107;DHT22;38105;52.968;5.974;2023-06-14T11:50:32;27.60;80.60
52107;DHT22;38105;52.968;5.974;2023-06-14T11:53:10;27.40;80.50
52107;DHT22;38105;52.968;5.974;2023-06-14T11:55:38;27.20;79.50
52107;DHT22;38105;52.968;5.974;2023-06-14T11:58:04;27.20;79.90
52107;DHT22;38105;52.968;5.974;2023-06-14T12:00:30;27.20;80.30
52107;DHT22;38105;52.968;5.974;2023-06-14T12:02:56;27.30;80.90
52107;DHT22;38105;52.968;5.974;2023-06-14T12:05:23;27.30;80.10
52107;DHT22;38105;52.968;5.974;2023-06-14T12:07:49;27.40;80.40
52107;DHT22;38105;52.968;5.974;2023-06-14T12:10:16;27.30;80.10
52107;DHT22;38105;52.968;5.974;2023-06-14T12:12:42;27.30;79.70
52107;DHT22;38105;52.968;5.974;2023-06-14T12:15:09;27.30;80.40
52107;DHT22;38105;52.968;5.974;2023-06-14T12:17:37;27.50;80.50
52107;DHT22;38105;52.968;5.974;2023-06-14T12:20:13;27.30;79.50
52107;DHT22;38105;52.968;5.974;2023-06-14T12:22:59;27.30;79.20
52107;DHT22;38105;52.968;5.974;2023-06-14T12:25:33;27.30;78.60
52107;DHT22;38105;52.968;5.974;2023-06-14T12:28:08;27.20;79.70
52107;DHT22;38105;52.968;5.974;2023-06-14T12:30:34;27.20;80.10
52107;DHT22;38105;52.968;5.974;2023-06-14T12:33:02;27.40;80.40
52107;DHT22;38105;52.968;5.974;2023-06-14T12:35:27;27.30;78.80
52107;DHT22;38105;52.968;5.974;2023-06-14T12:37:53;27.30;78.60
52107;DHT22;38105;52.968;5.974;2023-06-14T12:40:19;27.30;78.70
52107;DHT22;38105;52.968;5.974;2023-06-14T12:42:44;27.30;79.00
52107;DHT22;38105;52.968;5.974;2023-06-14T12:45:12;27.00;78.60
52107;DHT22;38105;52.968;5.974;2023-06-14T12:47:38;26.80;80.10
52107;DHT22;38105;52.968;5.974;2023-06-14T12:50:04;26.80;79.80
52107;DHT22;38105;52.968;5.974;2023-06-14T12:52:30;26.90;79.80
52107;DHT22;38105;52.968;5.974;2023-06-14T12:54:56;27.00;80.70
52107;DHT22;38105;52.968;5.974;2023-06-14T12:57:22;27.00;80.50
52107;DHT22;38105;52.968;5.974;2023-06-14T12:59:48;26.80;80.80
52107;DHT22;38105;52.968;5.974;2023-06-14T13:02:18;26.90;82.00
52107;DHT22;38105;52.968;5.974;2023-06-14T13:04:44;26.80;80.70
52107;DHT22;38105;52.968;5.974;2023-06-14T13:07:10;27.00;81.70
52107;DHT22;38105;52.968;5.974;2023-06-14T13:09:36;27.00;81.30
52107;DHT22;38105;52.968;5.974;2023-06-14T13:12:02;26.90;80.80
52107;DHT22;38105;52.968;5.974;2023-06-14T13:14:28;26.90;80.50
52107;DHT22;38105;52.968;5.974;2023-06-14T13:16:53;26.80;80.40
52107;DHT22;38105;52.968;5.974;2023-06-14T13:19:20;26.90;81.90
52107;DHT22;38105;52.968;5.974;2023-06-14T13:21:46;27.00;80.50
52107;DHT22;38105;52.968;5.974;2023-06-14T13:24:11;26.80;80.40
52107;DHT22;38105;52.968;5.974;2023-06-14T13:26:37;26.90;80.50
52107;DHT22;38105;52.968;5.974;2023-06-14T13:29:03;27.00;80.80
52107;DHT22;38105;52.968;5.974;2023-06-14T13:31:29;27.00;80.30
52107;DHT22;38105;52.968;5.974;2023-06-14T13:33:54;27.00;80.90
52107;DHT22;38105;52.968;5.974;2023-06-14T13:36:20;27.00;79.70
52107;DHT22;38105;52.968;5.974;2023-06-14T13:38:46;27.00;80.60
52107;DHT22;38105;52.968;5.974;2023-06-14T13:41:12;26.90;79.90
52107;DHT22;38105;52.968;5.974;2023-06-14T13:43:37;26.90;80.40
52107;DHT22;38105;52.968;5.974;2023-06-14T13:46:03;27.00;80.50
52107;DHT22;38105;52.968;5.974;2023-06-14T13:48:29;27.10;80.70
52107;DHT22;38105;52.968;5.974;2023-06-14T13:50:54;27.20;81.00
52107;DHT22;38105;52.968;5.974;2023-06-14T13:53:20;27.20;80.20
52107;DHT22;38105;52.968;5.974;2023-06-14T13:55:45;27.10;80.40
52107;DHT22;38105;52.968;5.974;2023-06-14T13:58:11;27.10;80.50
52107;DHT22;38105;52.968;5.974;2023-06-14T14:00:37;27.10;81.10
52107;DHT22;38105;52.968;5.974;2023-06-14T14:03:06;27.10;80.90
52107;DHT22;38105;52.968;5.974;2023-06-14T14:05:32;27.10;79.90
52107;DHT22;38105;52.968;5.974;2023-06-14T14:07:58;26.90;80.00
52107;DHT22;38105;52.968;5.974;2023-06-14T14:10:26;26.70;80.30
52107;DHT22;38105;52.968;5.974;2023-06-14T14:12:52;26.80;80.70
52107;DHT22;38105;52.968;5.974;2023-06-14T14:15:18;26.90;80.60
52107;DHT22;38105;52.968;5.974;2023-06-14T14:17:44;26.80;80.50
52107;DHT22;38105;52.968;5.974;2023-06-14T14:20:10;27.00;80.00
52107;DHT22;38105;52.968;5.974;2023-06-14T14:22:38;27.20;80.60
52107;DHT22;38105;52.968;5.974;2023-06-14T14:25:03;27.20;81.60
52107;DHT22;38105;52.968;5.974;2023-06-14T14:27:29;27.10;80.10
52107;DHT22;38105;52.968;5.974;2023-06-14T14:29:55;27.00;80.30
52107;DHT22;38105;52.968;5.974;2023-06-14T14:32:20;26.70;80.10
52107;DHT22;38105;52.968;5.974;2023-06-14T14:34:46;26.60;80.50
52107;DHT22;38105;52.968;5.974;2023-06-14T14:37:11;26.60;80.40
52107;DHT22;38105;52.968;5.974;2023-06-14T14:39:38;26.70;80.60
52107;DHT22;38105;52.968;5.974;2023-06-14T14:42:04;26.80;79.90
52107;DHT22;38105;52.968;5.974;2023-06-14T14:44:30;26.80;79.70
52107;DHT22;38105;52.968;5.974;2023-06-14T14:46:56;26.90;80.60
52107;DHT22;38105;52.968;5.974;2023-06-14T14:49:22;26.80;79.40
52107;DHT22;38105;52.968;5.974;2023-06-14T14:51:47;26.70;80.00
52107;DHT22;38105;52.968;5.974;2023-06-14T14:54:13;26.80;80.80
52107;DHT22;38105;52.968;5.974;2023-06-14T14:56:38;26.70;80.40
52107;DHT22;38105;52.968;5.974;2023-06-14T14:59:04;26.70;80.30
52107;DHT22;38105;52.968;5.974;2023-06-14T15:01:30;26.80;80.90
52107;DHT22;38105;52.968;5.974;2023-06-14T15:03:56;26.90;82.20
52107;DHT22;38105;52.968;5.974;2023-06-14T15:06:21;27.00;80.70
52107;DHT22;38105;52.968;5.974;2023-06-14T15:08:47;27.20;81.00
52107;DHT22;38105;52.968;5.974;2023-06-14T15:11:12;27.30;80.50
52107;DHT22;38105;52.968;5.974;2023-06-14T15:13:38;27.10;80.10
52107;DHT22;38105;52.968;5.974;2023-06-14T15:16:04;26.90;80.40
52107;DHT22;38105;52.968;5.974;2023-06-14T15:18:29;26.80;80.50
52107;DHT22;38105;52.968;5.974;2023-06-14T15:20:55;26.80;80.10
52107;DHT22;38105;52.968;5.974;2023-06-14T15:23:21;26.80;80.30
52107;DHT22;38105;52.968;5.974;2023-06-14T15:25:47;26.70;80.40
52107;DHT22;38105;52.968;5.974;2023-06-14T15:28:13;26.70;81.10
52107;DHT22;38105;52.968;5.974;2023-06-14T15:30:39;26.50;81.70
52107;DHT22;38105;52.968;5.974;2023-06-14T15:33:04;26.40;82.00
52107;DHT22;38105;52.968;5.974;2023-06-14T15:35:30;26.30;80.70
52107;DHT22;38105;52.968;5.974;2023-06-14T15:37:56;26.00;80.60
52107;DHT22;38105;52.968;5.974;2023-06-14T15:40:21;25.90;81.30
52107;DHT22;38105;52.968;5.974;2023-06-14T15:42:47;25.90;82.30
52107;DHT22;38105;52.968;5.974;2023-06-14T15:45:13;26.10;83.50
52107;DHT22;38105;52.968;5.974;2023-06-14T15:47:39;26.20;81.70
52107;DHT22;38105;52.968;5.974;2023-06-14T15:50:05;26.30;82.10